sensor_id;sensor_type;location;lat;lon;timestamp;P1;durP1;ratioP1;P2;durP2;ratioP2
54328;SDS011;40710;51.120;13.136;2023-05-10T00:00:08;6.87;;;6.87;;
54328;SDS011;40710;51.120;13.136;2023-05-10T00:02:34;6.87;;;6.80;;
54328;SDS011;40710;51.120;13.136;2023-05-10T00:05:00;7.16;;;7.16;;
54328;SDS011;40710;51.120;13.136;2023-05-10T00:07:25;6.76;;;6.76;;
54328;SDS011;40710;51.120;13.136;2023-05-10T00:09:49;6.44;;;6.44;;
54328;SDS011;40710;51.120;13.136;2023-05-10T00:12:14;7.20;;;7.20;;
54328;SDS011;40710;51.120;13.136;2023-05-10T00:14:38;7.12;;;7.12;;
54328;SDS011;40710;51.120;13.136;2023-05-10T00:17:03;6.56;;;6.56;;
54328;SDS011;40710;51.120;13.136;2023-05-10T00:19:27;6.68;;;6.68;;
54328;SDS011;40710;51.120;13.136;2023-05-10T00:21:52;6.99;;;6.99;;
54328;SDS011;40710;51.120;13.136;2023-05-10T00:24:16;6.45;;;6.45;;
54328;SDS011;40710;51.120;13.136;2023-05-10T00:26:41;6.91;;;6.91;;
54328;SDS011;40710;51.120;13.136;2023-05-10T00:29:06;6.82;;;6.82;;
54328;SDS011;40710;51.120;13.136;2023-05-10T00:31:30;7.08;;;7.08;;
54328;SDS011;40710;51.120;13.136;2023-05-10T00:33:55;6.33;;;6.33;;
54328;SDS011;40710;51.120;13.136;2023-05-10T00:36:20;6.40;;;6.36;;
54328;SDS011;40710;51.120;13.136;2023-05-10T00:38:45;7.05;;;6.91;;
54328;SDS011;40710;51.120;13.136;2023-05-10T00:41:09;6.80;;;6.78;;
54328;SDS011;40710;51.120;13.136;2023-05-10T00:43:34;6.68;;;6.68;;
54328;SDS011;40710;51.120;13.136;2023-05-10T00:45:58;6.80;;;6.80;;
54328;SDS011;40710;51.120;13.136;2023-05-10T00:48:23;7.11;;;7.11;;
54328;SDS011;40710;51.120;13.136;2023-05-10T00:50:48;6.90;;;6.90;;
54328;SDS011;40710;51.120;13.136;2023-05-10T00:53:13;7.42;;;7.42;;
54328;SDS011;40710;51.120;13.136;2023-05-10T00:55:39;7.37;;;7.37;;
54328;SDS011;40710;51.120;13.136;2023-05-10T00:58:04;7.11;;;7.11;;
54328;SDS011;40710;51.120;13.136;2023-05-10T01:00:29;7.39;;;7.39;;
54328;SDS011;40710;51.120;13.136;2023-05-10T01:02:54;7.42;;;7.42;;
54328;SDS011;40710;51.120;13.136;2023-05-10T01:05:18;7.15;;;7.14;;
54328;SDS011;40710;51.120;13.136;2023-05-10T01:07:43;7.17;;;7.17;;
54328;SDS011;40710;51.120;13.136;2023-05-10T01:10:08;7.06;;;7.06;;
54328;SDS011;40710;51.120;13.136;2023-05-10T01:12:34;7.22;;;7.22;;
54328;SDS011;40710;51.120;13.136;2023-05-10T01:15:02;7.11;;;7.11;;
54328;SDS011;40710;51.120;13.136;2023-05-10T01:17:28;7.01;;;7.01;;
54328;SDS011;40710;51.120;13.136;2023-05-10T01:19:53;7.10;;;7.10;;
54328;SDS011;40710;51.120;13.136;2023-05-10T01:22:25;7.21;;;7.21;;
54328;SDS011;40710;51.120;13.136;2023-05-10T01:25:31;6.73;;;6.73;;
54328;SDS011;40710;51.120;13.136;2023-05-10T01:31:35;7.05;;;7.05;;
54328;SDS011;40710;51.120;13.136;2023-05-10T01:33:46;7.26;;;7.26;;
54328;SDS011;40710;51.120;13.136;2023-05-10T01:36:27;6.97;;;6.93;;
54328;SDS011;40710;51.120;13.136;2023-05-10T01:38:58;6.87;;;6.87;;
54328;SDS011;40710;51.120;13.136;2023-05-10T01:41:43;6.64;;;6.64;;
54328;SDS011;40710;51.120;13.136;2023-05-10T01:44:20;7.23;;;7.23;;
54328;SDS011;40710;51.120;13.136;2023-05-10T01:46:56;6.82;;;6.82;;
54328;SDS011;40710;51.120;13.136;2023-05-10T01:49:37;7.16;;;7.16;;
54328;SDS011;40710;51.120;13.136;2023-05-10T01:52:11;6.83;;;6.83;;
54328;SDS011;40710;51.120;13.136;2023-05-10T01:54:44;6.54;;;6.54;;
54328;SDS011;40710;51.120;13.136;2023-05-10T01:57:17;7.15;;;7.15;;
54328;SDS011;40710;51.120;13.136;2023-05-10T01:59:46;7.02;;;7.02;;
54328;SDS011;40710;51.120;13.136;2023-05-10T02:02:14;7.12;;;7.12;;
54328;SDS011;40710;51.120;13.136;2023-05-10T02:04:44;6.87;;;6.87;;
54328;SDS011;40710;51.120;13.136;2023-05-10T02:07:11;6.97;;;6.97;;
54328;SDS011;40710;51.120;13.136;2023-05-10T02:09:38;6.78;;;6.78;;
54328;SDS011;40710;51.120;13.136;2023-05-10T02:12:08;7.04;;;7.01;;
54328;SDS011;40710;51.120;13.136;2023-05-10T02:14:34;6.72;;;6.65;;
54328;SDS011;40710;51.120;13.136;2023-05-10T02:17:01;6.61;;;6.61;;
54328;SDS011;40710;51.120;13.136;2023-05-10T02:19:29;6.96;;;6.96;;
54328;SDS011;40710;51.120;13.136;2023-05-10T02:21:56;6.90;;;6.90;;
54328;SDS011;40710;51.120;13.136;2023-05-10T02:24:25;7.05;;;7.05;;
54328;SDS011;40710;51.120;13.136;2023-05-10T02:26:53;7.17;;;7.17;;
54328;SDS011;40710;51.120;13.136;2023-05-10T02:29:20;7.13;;;7.13;;
54328;SDS011;40710;51.120;13.136;2023-05-10T02:31:47;6.96;;;6.96;;
54328;SDS011;40710;51.120;13.136;2023-05-10T02:34:16;7.19;;;7.19;;
54328;SDS011;40710;51.120;13.136;2023-05-10T02:36:41;7.10;;;7.10;;
54328;SDS011;40710;51.120;13.136;2023-05-10T02:39:06;7.03;;;6.97;;
54328;SDS011;40710;51.120;13.136;2023-05-10T02:41:36;6.94;;;6.93;;
54328;SDS011;40710;51.120;13.136;2023-05-10T02:44:04;7.10;;;7.10;;
54328;SDS011;40710;51.120;13.136;2023-05-10T02:46:33;7.57;;;7.57;;
54328;SDS011;40710;51.120;13.136;2023-05-10T02:48:58;7.68;;;7.68;;
54328;SDS011;40710;51.120;13.136;2023-05-10T02:51:24;7.27;;;7.27;;
54328;SDS011;40710;51.120;13.136;2023-05-10T02:53:55;7.40;;;7.40;;
54328;SDS011;40710;51.120;13.136;2023-05-10T02:56:28;7.49;;;7.49;;
54328;SDS011;40710;51.120;13.136;2023-05-10T02:58:57;7.51;;;7.51;;
54328;SDS011;40710;51.120;13.136;2023-05-10T03:01:21;8.56;;;8.56;;
54328;SDS011;40710;51.120;13.136;2023-05-10T03:03:46;8.81;;;8.81;;
54328;SDS011;40710;51.120;13.136;2023-05-10T03:06:10;9.15;;;9.15;;
54328;SDS011;40710;51.120;13.136;2023-05-10T03:08:35;9.01;;;9.01;;
54328;SDS011;40710;51.120;13.136;2023-05-10T03:13:55;8.84;;;8.84;;
54328;SDS011;40710;51.120;13.136;2023-05-10T03:16:46;9.34;;;9.30;;
54328;SDS011;40710;51.120;13.136;2023-05-10T03:19:22;11.42;;;11.26;;
54328;SDS011;40710;51.120;13.136;2023-05-10T03:22:03;11.72;;;11.63;;
54328;SDS011;40710;51.120;13.136;2023-05-10T03:24:34;11.11;;;10.89;;
54328;SDS011;40710;51.120;13.136;2023-05-10T03:27:01;10.45;;;10.40;;
54328;SDS011;40710;51.120;13.136;2023-05-10T03:29:28;9.81;;;9.81;;
54328;SDS011;40710;51.120;13.136;2023-05-10T03:31:54;8.89;;;8.89;;
54328;SDS011;40710;51.120;13.136;2023-05-10T03:34:25;8.64;;;8.55;;
54328;SDS011;40710;51.120;13.136;2023-05-10T03:36:50;8.47;;;8.45;;
54328;SDS011;40710;51.120;13.136;2023-05-10T03:39:14;8.23;;;8.20;;
54328;SDS011;40710;51.120;13.136;2023-05-10T03:41:39;8.45;;;8.45;;
54328;SDS011;40710;51.120;13.136;2023-05-10T03:44:03;8.44;;;8.40;;
54328;SDS011;40710;51.120;13.136;2023-05-10T03:46:28;8.46;;;8.46;;
54328;SDS011;40710;51.120;13.136;2023-05-10T03:48:52;8.55;;;8.55;;
54328;SDS011;40710;51.120;13.136;2023-05-10T03:51:17;8.76;;;8.76;;
54328;SDS011;40710;51.120;13.136;2023-05-10T03:53:41;8.59;;;8.59;;
54328;SDS011;40710;51.120;13.136;2023-05-10T03:56:06;8.49;;;8.49;;
54328;SDS011;40710;51.120;13.136;2023-05-10T03:58:30;8.83;;;8.82;;
54328;SDS011;40710;51.120;13.136;2023-05-10T04:00:55;9.44;;;9.44;;
54328;SDS011;40710;51.120;13.136;2023-05-10T04:03:20;9.24;;;9.17;;
54328;SDS011;40710;51.120;13.136;2023-05-10T04:05:44;8.80;;;8.76;;
54328;SDS011;40710;51.120;13.136;2023-05-10T04:08:09;8.99;;;8.99;;
54328;SDS011;40710;51.120;13.136;2023-05-10T04:10:33;8.45;;;8.45;;
54328;SDS011;40710;51.120;13.136;2023-05-10T04:12:58;8.64;;;8.62;;
54328;SDS011;40710;51.120;13.136;2023-05-10T04:15:22;9.05;;;9.05;;
54328;SDS011;40710;51.120;13.136;2023-05-10T04:17:47;9.14;;;9.14;;
54328;SDS011;40710;51.120;13.136;2023-05-10T04:20:13;9.43;;;9.43;;
54328;SDS011;40710;51.120;13.136;2023-05-10T04:22:37;10.12;;;10.10;;
54328;SDS011;40710;51.120;13.136;2023-05-10T04:25:02;9.41;;;9.41;;
54328;SDS011;40710;51.120;13.136;2023-05-10T04:27:26;9.12;;;9.11;;
54328;SDS011;40710;51.120;13.136;2023-05-10T04:29:51;9.36;;;9.36;;
54328;SDS011;40710;51.120;13.136;2023-05-10T04:32:16;9.18;;;9.18;;
54328;SDS011;40710;51.120;13.136;2023-05-10T04:34:41;9.90;;;9.90;;
54328;SDS011;40710;51.120;13.136;2023-05-10T04:37:05;9.45;;;9.45;;
54328;SDS011;40710;51.120;13.136;2023-05-10T04:39:31;10.02;;;10.01;;
54328;SDS011;40710;51.120;13.136;2023-05-10T04:41:56;9.77;;;9.76;;
54328;SDS011;40710;51.120;13.136;2023-05-10T04:44:20;9.86;;;9.86;;
54328;SDS011;40710;51.120;13.136;2023-05-10T04:46:45;9.66;;;9.66;;
54328;SDS011;40710;51.120;13.136;2023-05-10T04:49:10;9.86;;;9.86;;
54328;SDS011;40710;51.120;13.136;2023-05-10T04:51:34;10.13;;;10.12;;
54328;SDS011;40710;51.120;13.136;2023-05-10T04:54:00;10.30;;;10.30;;
54328;SDS011;40710;51.120;13.136;2023-05-10T04:56:24;10.14;;;10.14;;
54328;SDS011;40710;51.120;13.136;2023-05-10T04:58:49;9.92;;;9.92;;
54328;SDS011;40710;51.120;13.136;2023-05-10T05:01:13;10.34;;;10.34;;
54328;SDS011;40710;51.120;13.136;2023-05-10T05:03:38;10.18;;;10.18;;
54328;SDS011;40710;51.120;13.136;2023-05-10T05:06:03;10.66;;;10.63;;
54328;SDS011;40710;51.120;13.136;2023-05-10T05:08:27;9.94;;;9.94;;
54328;SDS011;40710;51.120;13.136;2023-05-10T05:10:52;9.66;;;9.63;;
54328;SDS011;40710;51.120;13.136;2023-05-10T05:13:16;9.44;;;9.44;;
54328;SDS011;40710;51.120;13.136;2023-05-10T05:15:41;8.48;;;8.48;;
54328;SDS011;40710;51.120;13.136;2023-05-10T05:18:06;8.34;;;8.34;;
54328;SDS011;40710;51.120;13.136;2023-05-10T05:20:31;8.20;;;8.16;;
54328;SDS011;40710;51.120;13.136;2023-05-10T05:22:57;7.96;;;7.89;;
54328;SDS011;40710;51.120;13.136;2023-05-10T05:25:21;7.93;;;7.93;;
54328;SDS011;40710;51.120;13.136;2023-05-10T05:27:46;7.36;;;7.36;;
54328;SDS011;40710;51.120;13.136;2023-05-10T05:30:11;7.92;;;7.92;;
54328;SDS011;40710;51.120;13.136;2023-05-10T05:32:35;7.85;;;7.85;;
54328;SDS011;40710;51.120;13.136;2023-05-10T05:35:00;6.91;;;6.91;;
54328;SDS011;40710;51.120;13.136;2023-05-10T05:37:24;7.01;;;7.01;;
54328;SDS011;40710;51.120;13.136;2023-05-10T05:39:49;7.14;;;7.14;;
54328;SDS011;40710;51.120;13.136;2023-05-10T05:42:13;6.97;;;6.97;;
54328;SDS011;40710;51.120;13.136;2023-05-10T05:44:40;6.60;;;6.60;;
54328;SDS011;40710;51.120;13.136;2023-05-10T05:47:05;6.37;;;6.37;;
54328;SDS011;40710;51.120;13.136;2023-05-10T05:49:30;6.08;;;6.08;;
54328;SDS011;40710;51.120;13.136;2023-05-10T05:51:58;6.09;;;6.09;;
54328;SDS011;40710;51.120;13.136;2023-05-10T05:54:23;5.83;;;5.83;;
54328;SDS011;40710;51.120;13.136;2023-05-10T05:56:47;5.78;;;5.77;;
54328;SDS011;40710;51.120;13.136;2023-05-10T05:59:12;5.73;;;5.73;;
54328;SDS011;40710;51.120;13.136;2023-05-10T06:01:36;5.54;;;5.54;;
54328;SDS011;40710;51.120;13.136;2023-05-10T06:04:01;5.39;;;5.39;;
54328;SDS011;40710;51.120;13.136;2023-05-10T06:06:25;5.74;;;5.74;;
54328;SDS011;40710;51.120;13.136;2023-05-10T06:08:51;5.58;;;5.58;;
54328;SDS011;40710;51.120;13.136;2023-05-10T06:11:15;5.49;;;5.49;;
54328;SDS011;40710;51.120;13.136;2023-05-10T06:13:39;5.46;;;5.46;;
54328;SDS011;40710;51.120;13.136;2023-05-10T06:16:04;5.13;;;5.13;;
54328;SDS011;40710;51.120;13.136;2023-05-10T06:18:29;5.38;;;5.38;;
54328;SDS011;40710;51.120;13.136;2023-05-10T06:20:54;5.19;;;5.19;;
54328;SDS011;40710;51.120;13.136;2023-05-10T06:23:18;5.15;;;5.15;;
54328;SDS011;40710;51.120;13.136;2023-05-10T06:25:43;5.38;;;5.38;;
54328;SDS011;40710;51.120;13.136;2023-05-10T06:28:07;4.71;;;4.71;;
54328;SDS011;40710;51.120;13.136;2023-05-10T06:30:32;4.99;;;4.99;;
54328;SDS011;40710;51.120;13.136;2023-05-10T06:32:56;5.21;;;5.21;;
54328;SDS011;40710;51.120;13.136;2023-05-10T06:35:21;5.24;;;5.24;;
54328;SDS011;40710;51.120;13.136;2023-05-10T06:37:45;5.25;;;5.25;;
54328;SDS011;40710;51.120;13.136;2023-05-10T06:40:10;5.08;;;5.08;;
54328;SDS011;40710;51.120;13.136;2023-05-10T06:42:35;5.07;;;5.07;;
54328;SDS011;40710;51.120;13.136;2023-05-10T06:45:00;4.86;;;4.86;;
54328;SDS011;40710;51.120;13.136;2023-05-10T06:47:25;4.78;;;4.78;;
54328;SDS011;40710;51.120;13.136;2023-05-10T06:49:49;4.81;;;4.81;;
54328;SDS011;40710;51.120;13.136;2023-05-10T06:52:14;5.00;;;5.00;;
54328;SDS011;40710;51.120;13.136;2023-05-10T06:54:38;5.01;;;5.01;;
54328;SDS011;40710;51.120;13.136;2023-05-10T06:57:03;4.74;;;4.74;;
54328;SDS011;40710;51.120;13.136;2023-05-10T06:59:28;5.27;;;5.27;;
54328;SDS011;40710;51.120;13.136;2023-05-10T07:01:52;5.01;;;5.01;;
54328;SDS011;40710;51.120;13.136;2023-05-10T07:04:17;4.98;;;4.98;;
54328;SDS011;40710;51.120;13.136;2023-05-10T07:06:42;5.16;;;5.16;;
54328;SDS011;40710;51.120;13.136;2023-05-10T07:09:06;4.81;;;4.81;;
54328;SDS011;40710;51.120;13.136;2023-05-10T07:11:31;5.12;;;5.12;;
54328;SDS011;40710;51.120;13.136;2023-05-10T07:13:56;4.98;;;4.98;;
54328;SDS011;40710;51.120;13.136;2023-05-10T07:16:20;5.13;;;5.13;;
54328;SDS011;40710;51.120;13.136;2023-05-10T07:18:45;4.91;;;4.91;;
54328;SDS011;40710;51.120;13.136;2023-05-10T07:21:10;4.92;;;4.92;;
54328;SDS011;40710;51.120;13.136;2023-05-10T07:23:34;5.00;;;5.00;;
54328;SDS011;40710;51.120;13.136;2023-05-10T07:25:59;4.86;;;4.86;;
54328;SDS011;40710;51.120;13.136;2023-05-10T07:28:24;4.58;;;4.58;;
54328;SDS011;40710;51.120;13.136;2023-05-10T07:30:49;5.05;;;5.05;;
54328;SDS011;40710;51.120;13.136;2023-05-10T07:33:14;5.04;;;5.04;;
54328;SDS011;40710;51.120;13.136;2023-05-10T07:35:39;4.94;;;4.94;;
54328;SDS011;40710;51.120;13.136;2023-05-10T07:38:04;4.79;;;4.79;;
54328;SDS011;40710;51.120;13.136;2023-05-10T07:40:28;4.93;;;4.93;;
54328;SDS011;40710;51.120;13.136;2023-05-10T07:42:53;4.89;;;4.89;;
54328;SDS011;40710;51.120;13.136;2023-05-10T07:45:18;5.05;;;5.05;;
54328;SDS011;40710;51.120;13.136;2023-05-10T07:47:42;4.74;;;4.74;;
54328;SDS011;40710;51.120;13.136;2023-05-10T07:50:07;4.89;;;4.89;;
54328;SDS011;40710;51.120;13.136;2023-05-10T07:52:31;5.58;;;5.58;;
54328;SDS011;40710;51.120;13.136;2023-05-10T07:54:56;6.38;;;6.38;;
54328;SDS011;40710;51.120;13.136;2023-05-10T07:57:21;5.04;;;5.04;;
54328;SDS011;40710;51.120;13.136;2023-05-10T07:59:45;4.98;;;4.98;;
54328;SDS011;40710;51.120;13.136;2023-05-10T08:02:10;5.17;;;5.17;;
54328;SDS011;40710;51.120;13.136;2023-05-10T08:04:34;4.92;;;4.92;;
54328;SDS011;40710;51.120;13.136;2023-05-10T08:06:59;4.91;;;4.91;;
54328;SDS011;40710;51.120;13.136;2023-05-10T08:09:23;5.35;;;5.35;;
54328;SDS011;40710;51.120;13.136;2023-05-10T08:11:48;7.19;;;7.18;;
54328;SDS011;40710;51.120;13.136;2023-05-10T08:14:12;6.10;;;6.05;;
54328;SDS011;40710;51.120;13.136;2023-05-10T08:16:37;5.04;;;5.04;;
54328;SDS011;40710;51.120;13.136;2023-05-10T08:19:02;5.21;;;5.21;;
54328;SDS011;40710;51.120;13.136;2023-05-10T08:21:26;4.92;;;4.92;;
54328;SDS011;40710;51.120;13.136;2023-05-10T08:23:51;5.44;;;5.44;;
54328;SDS011;40710;51.120;13.136;2023-05-10T08:26:15;5.45;;;5.45;;
54328;SDS011;40710;51.120;13.136;2023-05-10T08:28:40;5.53;;;5.53;;
54328;SDS011;40710;51.120;13.136;2023-05-10T08:31:04;5.04;;;5.04;;
54328;SDS011;40710;51.120;13.136;2023-05-10T08:33:29;5.56;;;5.56;;
54328;SDS011;40710;51.120;13.136;2023-05-10T08:35:54;5.07;;;5.07;;
54328;SDS011;40710;51.120;13.136;2023-05-10T08:38:19;5.17;;;5.17;;
54328;SDS011;40710;51.120;13.136;2023-05-10T08:40:44;5.39;;;5.39;;
54328;SDS011;40710;51.120;13.136;2023-05-10T08:43:10;5.37;;;5.37;;
54328;SDS011;40710;51.120;13.136;2023-05-10T08:45:40;5.62;;;5.62;;
54328;SDS011;40710;51.120;13.136;2023-05-10T08:48:07;5.78;;;5.78;;
54328;SDS011;40710;51.120;13.136;2023-05-10T08:50:35;5.44;;;5.44;;
54328;SDS011;40710;51.120;13.136;2023-05-10T08:53:01;5.67;;;5.67;;
54328;SDS011;40710;51.120;13.136;2023-05-10T08:55:29;5.76;;;5.76;;
54328;SDS011;40710;51.120;13.136;2023-05-10T08:57:54;5.18;;;5.18;;
54328;SDS011;40710;51.120;13.136;2023-05-10T09:00:19;5.44;;;5.44;;
54328;SDS011;40710;51.120;13.136;2023-05-10T09:02:44;5.66;;;5.66;;
54328;SDS011;40710;51.120;13.136;2023-05-10T09:05:10;7.97;;;7.97;;
54328;SDS011;40710;51.120;13.136;2023-05-10T09:07:34;6.56;;;6.56;;
54328;SDS011;40710;51.120;13.136;2023-05-10T09:09:59;5.96;;;5.96;;
54328;SDS011;40710;51.120;13.136;2023-05-10T09:12:24;5.98;;;5.98;;
54328;SDS011;40710;51.120;13.136;2023-05-10T09:14:49;6.71;;;6.71;;
54328;SDS011;40710;51.120;13.136;2023-05-10T09:17:16;5.94;;;5.94;;
54328;SDS011;40710;51.120;13.136;2023-05-10T09:19:41;6.00;;;6.00;;
54328;SDS011;40710;51.120;13.136;2023-05-10T09:22:05;6.18;;;6.18;;
54328;SDS011;40710;51.120;13.136;2023-05-10T09:24:30;5.71;;;5.71;;
54328;SDS011;40710;51.120;13.136;2023-05-10T09:26:55;6.08;;;6.08;;
54328;SDS011;40710;51.120;13.136;2023-05-10T09:29:22;6.15;;;6.15;;
54328;SDS011;40710;51.120;13.136;2023-05-10T09:31:48;6.39;;;6.39;;
54328;SDS011;40710;51.120;13.136;2023-05-10T09:34:19;5.93;;;5.93;;
54328;SDS011;40710;51.120;13.136;2023-05-10T09:36:53;6.10;;;6.10;;
54328;SDS011;40710;51.120;13.136;2023-05-10T09:39:20;6.25;;;6.25;;
54328;SDS011;40710;51.120;13.136;2023-05-10T09:41:45;5.46;;;5.46;;
54328;SDS011;40710;51.120;13.136;2023-05-10T09:44:09;5.82;;;5.82;;
54328;SDS011;40710;51.120;13.136;2023-05-10T09:46:34;6.09;;;6.09;;
54328;SDS011;40710;51.120;13.136;2023-05-10T09:49:00;6.46;;;6.46;;
54328;SDS011;40710;51.120;13.136;2023-05-10T09:51:24;5.62;;;5.62;;
54328;SDS011;40710;51.120;13.136;2023-05-10T09:54:10;6.12;;;6.12;;
54328;SDS011;40710;51.120;13.136;2023-05-10T09:56:40;6.48;;;6.48;;
54328;SDS011;40710;51.120;13.136;2023-05-10T09:59:06;6.43;;;6.43;;
54328;SDS011;40710;51.120;13.136;2023-05-10T10:01:34;6.38;;;6.38;;
54328;SDS011;40710;51.120;13.136;2023-05-10T10:03:59;6.54;;;6.54;;
54328;SDS011;40710;51.120;13.136;2023-05-10T10:06:27;6.44;;;6.44;;
54328;SDS011;40710;51.120;13.136;2023-05-10T10:08:52;5.76;;;5.76;;
54328;SDS011;40710;51.120;13.136;2023-05-10T10:11:18;6.04;;;6.04;;
54328;SDS011;40710;51.120;13.136;2023-05-10T10:13:43;5.67;;;5.67;;
54328;SDS011;40710;51.120;13.136;2023-05-10T10:16:08;5.99;;;5.99;;
54328;SDS011;40710;51.120;13.136;2023-05-10T10:18:33;5.65;;;5.65;;
54328;SDS011;40710;51.120;13.136;2023-05-10T10:20:57;5.80;;;5.80;;
54328;SDS011;40710;51.120;13.136;2023-05-10T10:23:23;5.68;;;5.68;;
54328;SDS011;40710;51.120;13.136;2023-05-10T10:25:47;5.84;;;5.84;;
54328;SDS011;40710;51.120;13.136;2023-05-10T10:28:19;5.75;;;5.75;;
54328;SDS011;40710;51.120;13.136;2023-05-10T10:30:56;5.70;;;5.69;;
54328;SDS011;40710;51.120;13.136;2023-05-10T10:36:25;5.93;;;5.93;;
54328;SDS011;40710;51.120;13.136;2023-05-10T10:49:49;6.75;;;6.75;;
54328;SDS011;40710;51.120;13.136;2023-05-10T10:52:25;6.89;;;6.89;;
54328;SDS011;40710;51.120;13.136;2023-05-10T10:54:57;6.68;;;6.68;;
54328;SDS011;40710;51.120;13.136;2023-05-10T10:57:22;5.90;;;5.90;;
54328;SDS011;40710;51.120;13.136;2023-05-10T10:59:47;5.77;;;5.77;;
54328;SDS011;40710;51.120;13.136;2023-05-10T11:05:22;5.37;;;5.37;;
54328;SDS011;40710;51.120;13.136;2023-05-10T11:07:54;5.61;;;5.61;;
54328;SDS011;40710;51.120;13.136;2023-05-10T11:10:22;6.02;;;6.02;;
54328;SDS011;40710;51.120;13.136;2023-05-10T11:12:52;6.26;;;6.26;;
54328;SDS011;40710;51.120;13.136;2023-05-10T11:15:33;5.53;;;5.53;;
54328;SDS011;40710;51.120;13.136;2023-05-10T11:17:59;5.21;;;5.21;;
54328;SDS011;40710;51.120;13.136;2023-05-10T11:20:41;5.19;;;5.19;;
54328;SDS011;40710;51.120;13.136;2023-05-10T11:23:12;5.39;;;5.39;;
54328;SDS011;40710;51.120;13.136;2023-05-10T11:25:43;4.94;;;4.94;;
54328;SDS011;40710;51.120;13.136;2023-05-10T11:28:08;5.71;;;5.71;;
54328;SDS011;40710;51.120;13.136;2023-05-10T11:30:33;5.78;;;5.78;;
54328;SDS011;40710;51.120;13.136;2023-05-10T11:32:58;5.46;;;5.46;;
54328;SDS011;40710;51.120;13.136;2023-05-10T11:35:23;5.33;;;5.33;;
54328;SDS011;40710;51.120;13.136;2023-05-10T11:37:48;5.59;;;5.59;;
54328;SDS011;40710;51.120;13.136;2023-05-10T11:40:12;5.10;;;5.10;;
54328;SDS011;40710;51.120;13.136;2023-05-10T11:42:37;5.16;;;5.16;;
54328;SDS011;40710;51.120;13.136;2023-05-10T11:45:02;5.58;;;5.58;;
54328;SDS011;40710;51.120;13.136;2023-05-10T11:47:27;5.24;;;5.24;;
54328;SDS011;40710;51.120;13.136;2023-05-10T11:49:51;5.46;;;5.46;;
54328;SDS011;40710;51.120;13.136;2023-05-10T11:52:17;6.03;;;6.03;;
54328;SDS011;40710;51.120;13.136;2023-05-10T11:54:55;6.51;;;6.51;;
54328;SDS011;40710;51.120;13.136;2023-05-10T11:57:20;6.27;;;6.27;;
54328;SDS011;40710;51.120;13.136;2023-05-10T11:59:52;5.26;;;5.26;;
54328;SDS011;40710;51.120;13.136;2023-05-10T12:02:18;4.34;;;4.34;;
54328;SDS011;40710;51.120;13.136;2023-05-10T12:04:42;4.19;;;4.19;;
54328;SDS011;40710;51.120;13.136;2023-05-10T12:07:07;3.64;;;3.64;;
54328;SDS011;40710;51.120;13.136;2023-05-10T12:09:31;3.03;;;3.03;;
54328;SDS011;40710;51.120;13.136;2023-05-10T12:11:56;3.20;;;3.20;;
54328;SDS011;40710;51.120;13.136;2023-05-10T12:14:21;3.42;;;3.42;;
54328;SDS011;40710;51.120;13.136;2023-05-10T12:16:46;3.54;;;3.54;;
54328;SDS011;40710;51.120;13.136;2023-05-10T12:19:12;3.71;;;3.71;;
54328;SDS011;40710;51.120;13.136;2023-05-10T12:21:36;3.69;;;3.69;;
54328;SDS011;40710;51.120;13.136;2023-05-10T12:24:03;3.72;;;3.72;;
54328;SDS011;40710;51.120;13.136;2023-05-10T12:26:29;3.91;;;3.91;;
54328;SDS011;40710;51.120;13.136;2023-05-10T12:28:54;3.52;;;3.52;;
54328;SDS011;40710;51.120;13.136;2023-05-10T12:31:19;3.98;;;3.98;;
54328;SDS011;40710;51.120;13.136;2023-05-10T12:33:43;4.26;;;4.26;;
54328;SDS011;40710;51.120;13.136;2023-05-10T12:36:09;4.08;;;4.08;;
54328;SDS011;40710;51.120;13.136;2023-05-10T12:38:36;3.97;;;3.97;;
54328;SDS011;40710;51.120;13.136;2023-05-10T12:41:06;3.99;;;3.99;;
54328;SDS011;40710;51.120;13.136;2023-05-10T12:43:33;3.99;;;3.99;;
54328;SDS011;40710;51.120;13.136;2023-05-10T12:45:58;4.09;;;4.09;;
54328;SDS011;40710;51.120;13.136;2023-05-10T12:48:29;3.93;;;3.93;;
54328;SDS011;40710;51.120;13.136;2023-05-10T12:50:55;4.19;;;4.19;;
54328;SDS011;40710;51.120;13.136;2023-05-10T12:53:19;4.17;;;4.17;;
54328;SDS011;40710;51.120;13.136;2023-05-10T12:55:44;4.15;;;4.15;;
54328;SDS011;40710;51.120;13.136;2023-05-10T12:58:09;4.39;;;4.39;;
54328;SDS011;40710;51.120;13.136;2023-05-10T13:00:33;4.11;;;4.11;;
54328;SDS011;40710;51.120;13.136;2023-05-10T13:02:58;3.86;;;3.86;;
54328;SDS011;40710;51.120;13.136;2023-05-10T13:05:22;4.31;;;4.31;;
54328;SDS011;40710;51.120;13.136;2023-05-10T13:07:47;4.18;;;4.18;;
54328;SDS011;40710;51.120;13.136;2023-05-10T13:10:11;4.63;;;4.63;;
54328;SDS011;40710;51.120;13.136;2023-05-10T13:12:36;4.12;;;4.12;;
54328;SDS011;40710;51.120;13.136;2023-05-10T13:15:00;3.81;;;3.81;;
54328;SDS011;40710;51.120;13.136;2023-05-10T13:17:25;3.84;;;3.84;;
54328;SDS011;40710;51.120;13.136;2023-05-10T13:19:50;3.62;;;3.62;;
54328;SDS011;40710;51.120;13.136;2023-05-10T13:22:14;3.48;;;3.48;;
54328;SDS011;40710;51.120;13.136;2023-05-10T13:24:39;3.54;;;3.54;;
54328;SDS011;40710;51.120;13.136;2023-05-10T13:27:03;3.72;;;3.72;;
54328;SDS011;40710;51.120;13.136;2023-05-10T13:29:28;3.24;;;3.24;;
54328;SDS011;40710;51.120;13.136;2023-05-10T13:31:53;3.31;;;3.31;;
54328;SDS011;40710;51.120;13.136;2023-05-10T13:34:17;3.18;;;3.18;;
54328;SDS011;40710;51.120;13.136;2023-05-10T13:36:44;3.39;;;3.39;;
54328;SDS011;40710;51.120;13.136;2023-05-10T13:39:09;3.14;;;3.14;;
54328;SDS011;40710;51.120;13.136;2023-05-10T13:41:33;2.75;;;2.75;;
54328;SDS011;40710;51.120;13.136;2023-05-10T13:43:58;2.91;;;2.91;;
54328;SDS011;40710;51.120;13.136;2023-05-10T13:46:22;2.94;;;2.94;;
54328;SDS011;40710;51.120;13.136;2023-05-10T13:48:47;3.04;;;3.04;;
54328;SDS011;40710;51.120;13.136;2023-05-10T13:51:11;3.11;;;3.11;;
54328;SDS011;40710;51.120;13.136;2023-05-10T13:53:36;3.47;;;3.47;;
54328;SDS011;40710;51.120;13.136;2023-05-10T13:56:01;3.29;;;3.29;;
54328;SDS011;40710;51.120;13.136;2023-05-10T13:58:26;3.35;;;3.35;;
54328;SDS011;40710;51.120;13.136;2023-05-10T14:00:51;3.70;;;3.70;;
54328;SDS011;40710;51.120;13.136;2023-05-10T14:03:15;4.38;;;4.38;;
54328;SDS011;40710;51.120;13.136;2023-05-10T14:05:41;4.29;;;4.29;;
54328;SDS011;40710;51.120;13.136;2023-05-10T14:08:05;4.38;;;4.38;;
54328;SDS011;40710;51.120;13.136;2023-05-10T14:10:30;4.42;;;4.42;;
54328;SDS011;40710;51.120;13.136;2023-05-10T14:12:54;4.42;;;4.42;;
54328;SDS011;40710;51.120;13.136;2023-05-10T14:15:19;4.69;;;4.69;;
54328;SDS011;40710;51.120;13.136;2023-05-10T14:17:44;4.47;;;4.47;;
54328;SDS011;40710;51.120;13.136;2023-05-10T14:20:08;4.35;;;4.35;;
54328;SDS011;40710;51.120;13.136;2023-05-10T14:22:33;4.51;;;4.51;;
54328;SDS011;40710;51.120;13.136;2023-05-10T14:24:58;4.94;;;4.94;;
54328;SDS011;40710;51.120;13.136;2023-05-10T14:27:22;5.12;;;5.12;;
54328;SDS011;40710;51.120;13.136;2023-05-10T14:29:47;5.08;;;5.08;;
54328;SDS011;40710;51.120;13.136;2023-05-10T14:32:11;4.99;;;4.99;;
54328;SDS011;40710;51.120;13.136;2023-05-10T14:34:36;4.98;;;4.98;;
54328;SDS011;40710;51.120;13.136;2023-05-10T14:37:00;5.18;;;5.18;;
54328;SDS011;40710;51.120;13.136;2023-05-10T14:39:25;4.97;;;4.97;;
54328;SDS011;40710;51.120;13.136;2023-05-10T14:41:53;5.17;;;5.17;;
54328;SDS011;40710;51.120;13.136;2023-05-10T14:44:18;6.16;;;6.16;;
54328;SDS011;40710;51.120;13.136;2023-05-10T14:46:43;9.69;;;9.61;;
54328;SDS011;40710;51.120;13.136;2023-05-10T14:49:07;5.77;;;5.73;;